Time;durP1;ratioP1;P1;durP2;ratioP2;P2;SDS_P1;SDS_P2;PMS_P1;PMS_P2;Temp;Humidity;BMP_temperature;BMP_pressure;BME280_temperature;BME280_humidity;BME280_pressure;Samples;Min_cycle;Max_cycle;Signal;HPM_P1;HPM_P2
2022/10/21 00:02:12;;;;;;;9.30;3.72;;;;;;;;;;8273510;28;20045;-63
2022/10/21 00:06:12;;;;;;;11.68;3.60;;;;;;;;;;8275501;28;20375;-63
2022/10/21 00:10:12;;;;;;;9.00;3.30;;;;;;;;;;8274993;28;20404;-63
2022/10/21 00:14:12;;;;;;;7.28;3.05;;;;;;;;;;8273399;28;20037;-63
2022/10/21 00:18:13;;;;;;;8.60;3.00;;;;;;;;;;8276037;28;20091;-63
2022/10/21 00:22:13;;;;;;;6.95;2.60;;;;;;;;;;8272518;28;20391;-63
2022/10/21 00:26:13;;;;;;;5.80;2.60;;;;;;;;;;8273041;28;20026;-63
2022/10/21 00:30:14;;;;;;;7.05;2.78;;;;;;;;;;8274209;28;20021;-63
2022/10/21 00:34:14;;;;;;;7.63;3.20;;;;;;;;;;8271541;28;20461;-63
2022/10/21 00:38:14;;;;;;;5.88;2.65;;;;;;;;;;8274754;28;20053;-63
2022/10/21 00:42:16;;;;;;;5.30;2.33;;;;;;;;;;8270528;28;20032;-63
2022/10/21 00:46:17;;;;;;;5.85;2.47;;;;;;;;;;8272410;28;20125;-62
2022/10/21 00:50:26;;;;;;;4.22;2.20;;;;;;;;;;8274500;28;20083;-63
2022/10/21 00:54:28;;;;;;;4.32;2.30;;;;;;;;;;8273702;28;20107;-63
2022/10/21 00:58:29;;;;;;;6.20;2.72;;;;;;;;;;8272317;28;20231;-63
2022/10/21 01:02:30;;;;;;;7.00;2.30;;;;;;;;;;8272186;28;20234;-63
2022/10/21 01:06:30;;;;;;;7.88;2.38;;;;;;;;;;8273036;28;20053;-63
2022/10/21 01:10:31;;;;;;;6.63;2.47;;;;;;;;;;8270653;28;20025;-63
2022/10/21 01:14:34;;;;;;;4.15;2.10;;;;;;;;;;8272192;28;20443;-62
2022/10/21 01:18:53;;;;;;;5.60;2.27;;;;;;;;;;8270220;28;20348;-63
2022/10/21 01:22:59;;;;;;;5.15;2.17;;;;;;;;;;8271750;28;20753;-63
2022/10/21 01:27:18;;;;;;;7.50;2.60;;;;;;;;;;8270592;28;21213;-63
2022/10/21 01:31:21;;;;;;;4.90;2.13;;;;;;;;;;8270858;28;20528;-63
2022/10/21 01:35:23;;;;;;;5.60;2.70;;;;;;;;;;8270079;28;20028;-63
2022/10/21 01:39:29;;;;;;;5.63;3.00;;;;;;;;;;8271701;28;20160;-63
2022/10/21 01:43:30;;;;;;;5.38;2.78;;;;;;;;;;8272228;28;20033;-63
2022/10/21 01:47:32;;;;;;;5.93;2.53;;;;;;;;;;8271669;28;20423;-63
2022/10/21 01:51:34;;;;;;;4.63;2.20;;;;;;;;;;8270069;28;20017;-63
2022/10/21 01:55:34;;;;;;;6.20;2.15;;;;;;;;;;8270186;28;20036;-63
2022/10/21 01:59:36;;;;;;;5.63;2.22;;;;;;;;;;8270736;28;20035;-63
2022/10/21 02:03:39;;;;;;;7.95;2.55;;;;;;;;;;8269699;28;20049;-63
2022/10/21 02:07:39;;;;;;;7.25;2.58;;;;;;;;;;8270204;28;20574;-63
2022/10/21 02:11:41;;;;;;;5.30;2.70;;;;;;;;;;8271055;28;20034;-62
2022/10/21 02:15:41;;;;;;;10.32;2.88;;;;;;;;;;8272425;28;20037;-63
2022/10/21 02:19:42;;;;;;;7.45;3.40;;;;;;;;;;8268548;28;20025;-63
2022/10/21 02:24:00;;;;;;;23.13;3.47;;;;;;;;;;8271165;28;20095;-63
2022/10/21 02:28:01;;;;;;;193.13;5.78;;;;;;;;;;8269097;28;20026;-63
2022/10/21 02:32:01;;;;;;;107.63;4.43;;;;;;;;;;8268775;28;20505;-63
2022/10/21 02:36:07;;;;;;;126.80;3.80;;;;;;;;;;8268981;28;20030;-63
2022/10/21 02:40:28;;;;;;;3.85;1.75;;;;;;;;;;8270195;28;20136;-63
2022/10/21 02:44:29;;;;;;;35.53;2.60;;;;;;;;;;8269622;28;21008;-63
2022/10/21 02:48:31;;;;;;;348.23;7.70;;;;;;;;;;8268704;28;20084;-63
2022/10/21 02:52:31;;;;;;;642.17;13.85;;;;;;;;;;8271705;28;20264;-63
2022/10/21 02:56:31;;;;;;;402.00;9.38;;;;;;;;;;8270718;28;20030;-63
2022/10/21 03:00:31;;;;;;;815.77;18.50;;;;;;;;;;8268667;28;20087;-63
2022/10/21 03:04:32;;;;;;;410.17;10.57;;;;;;;;;;8270967;28;20048;-63
2022/10/21 03:08:32;;;;;;;783.47;20.20;;;;;;;;;;8271348;28;20046;-63
2022/10/21 03:12:32;;;;;;;811.03;21.10;;;;;;;;;;8267643;28;20139;-63
2022/10/21 03:16:32;;;;;;;807.17;19.90;;;;;;;;;;8270707;28;20393;-63
2022/10/21 03:20:33;;;;;;;818.38;20.45;;;;;;;;;;8268714;28;20471;-62
2022/10/21 03:24:33;;;;;;;354.73;9.23;;;;;;;;;;8267599;28;20123;-63
2022/10/21 03:28:33;;;;;;;829.30;20.02;;;;;;;;;;8267555;28;20509;-63
2022/10/21 03:32:33;;;;;;;696.05;17.15;;;;;;;;;;8269540;28;20568;-63
2022/10/21 03:36:33;;;;;;;511.05;11.88;;;;;;;;;;8272815;28;20808;-63
2022/10/21 03:40:34;;;;;;;513.97;12.70;;;;;;;;;;8274225;28;20029;-63
2022/10/21 03:44:34;;;;;;;513.88;12.13;;;;;;;;;;8275377;28;20060;-63
2022/10/21 03:48:34;;;;;;;446.33;11.18;;;;;;;;;;8277044;28;20037;-63
2022/10/21 03:52:34;;;;;;;261.15;6.90;;;;;;;;;;8276189;28;20507;-63
2022/10/21 03:56:34;;;;;;;115.15;4.72;;;;;;;;;;8273456;28;20033;-63
2022/10/21 04:00:35;;;;;;;68.63;3.90;;;;;;;;;;8276411;28;20506;-63
2022/10/21 04:04:35;;;;;;;55.00;3.88;;;;;;;;;;8275000;28;20498;-63
2022/10/21 04:08:35;;;;;;;211.85;6.55;;;;;;;;;;8273501;28;20356;-63
2022/10/21 04:12:35;;;;;;;350.50;9.50;;;;;;;;;;8275002;28;20884;-63
2022/10/21 04:16:35;;;;;;;353.50;8.60;;;;;;;;;;8274550;28;20052;-63
2022/10/21 04:20:36;;;;;;;92.82;4.43;;;;;;;;;;8273232;28;20034;-63
2022/10/21 04:24:36;;;;;;;3.47;2.97;;;;;;;;;;8274093;28;20628;-63
2022/10/21 04:28:36;;;;;;;3.08;2.28;;;;;;;;;;8274696;28;20034;-63
2022/10/21 04:32:36;;;;;;;5.80;1.90;;;;;;;;;;8273596;28;20053;-63
2022/10/21 04:36:37;;;;;;;5.55;2.10;;;;;;;;;;8275837;28;20994;-63
2022/10/21 04:40:37;;;;;;;4.43;2.20;;;;;;;;;;8273560;28;20034;-63
2022/10/21 04:44:38;;;;;;;6.70;2.72;;;;;;;;;;8273299;28;20053;-63
2022/10/21 04:48:39;;;;;;;7.82;2.72;;;;;;;;;;8272169;28;20038;-63
2022/10/21 04:52:39;;;;;;;6.35;2.42;;;;;;;;;;8273204;28;20076;-63
2022/10/21 04:56:40;;;;;;;6.73;2.57;;;;;;;;;;8273226;28;20029;-63
2022/10/21 05:00:40;;;;;;;7.85;2.75;;;;;;;;;;8272605;28;20513;-63
2022/10/21 05:04:40;;;;;;;6.57;2.50;;;;;;;;;;8272752;28;20033;-63
2022/10/21 05:08:40;;;;;;;11.73;2.90;;;;;;;;;;8272977;28;20041;-63
2022/10/21 05:12:40;;;;;;;5.43;2.90;;;;;;;;;;8273946;28;20022;-63
2022/10/21 05:16:41;;;;;;;11.43;3.35;;;;;;;;;;8272298;28;20048;-63
2022/10/21 05:20:41;;;;;;;11.57;3.30;;;;;;;;;;8274049;28;20127;-63
2022/10/21 05:24:41;;;;;;;11.20;3.97;;;;;;;;;;8273485;28;20036;-63
2022/10/21 05:28:41;;;;;;;11.13;3.45;;;;;;;;;;8272879;28;20036;-64
2022/10/21 05:32:41;;;;;;;13.65;3.45;;;;;;;;;;8275008;28;20227;-63
2022/10/21 05:36:42;;;;;;;8.60;3.55;;;;;;;;;;8270140;28;20801;-64
2022/10/21 05:40:42;;;;;;;9.25;3.13;;;;;;;;;;8267855;28;20034;-63
2022/10/21 05:44:42;;;;;;;14.13;3.35;;;;;;;;;;8271487;28;20036;-64
2022/10/21 05:48:42;;;;;;;14.75;3.65;;;;;;;;;;8268043;28;20036;-63
2022/10/21 05:52:42;;;;;;;573.05;17.15;;;;;;;;;;8268163;28;20064;-64
2022/10/21 05:56:42;;;;;;;918.87;24.47;;;;;;;;;;8268860;28;20030;-63
2022/10/21 06:00:43;;;;;;;480.80;14.95;;;;;;;;;;8268647;28;20976;-64
2022/10/21 06:04:43;;;;;;;19.00;14.68;;;;;;;;;;8268478;28;20103;-64
2022/10/21 06:08:43;;;;;;;264.38;13.93;;;;;;;;;;8270431;28;20026;-63
2022/10/21 06:12:43;;;;;;;319.58;27.13;;;;;;;;;;8266546;28;20228;-63
2022/10/21 06:16:44;;;;;;;69.60;10.35;;;;;;;;;;8268571;28;20586;-63
2022/10/21 06:20:44;;;;;;;8.93;5.72;;;;;;;;;;8268963;28;20559;-63
2022/10/21 06:24:44;;;;;;;9.55;4.38;;;;;;;;;;8269341;28;20076;-64
2022/10/21 06:28:45;;;;;;;9.20;3.25;;;;;;;;;;8267606;28;20796;-63
2022/10/21 06:32:45;;;;;;;7.78;3.22;;;;;;;;;;8265865;28;20072;-64
2022/10/21 06:36:45;;;;;;;6.10;3.97;;;;;;;;;;8269002;28;20040;-63
2022/10/21 06:40:47;;;;;;;9.23;3.80;;;;;;;;;;8268637;28;20337;-63
2022/10/21 06:44:47;;;;;;;9.63;3.10;;;;;;;;;;8270219;28;20518;-63
2022/10/21 06:48:48;;;;;;;7.68;4.50;;;;;;;;;;8272478;28;20034;-63
2022/10/21 06:52:49;;;;;;;12.93;7.40;;;;;;;;;;8269824;28;20034;-63
2022/10/21 06:56:49;;;;;;;6.13;4.00;;;;;;;;;;8267861;28;20131;-64
2022/10/21 07:00:49;;;;;;;7.45;4.25;;;;;;;;;;8270493;28;20143;-63
2022/10/21 07:04:51;;;;;;;7.22;4.45;;;;;;;;;;8268487;28;20833;-63
2022/10/21 07:08:51;;;;;;;8.15;3.17;;;;;;;;;;8270802;28;20029;-63
2022/10/21 07:12:51;;;;;;;3.35;3.05;;;;;;;;;;8269108;28;20040;-63
2022/10/21 07:16:52;;;;;;;4.25;1.92;;;;;;;;;;8271280;28;20052;-62
2022/10/21 07:20:53;;;;;;;4.53;2.03;;;;;;;;;;8268928;28;20033;-63
2022/10/21 07:24:53;;;;;;;4.22;1.95;;;;;;;;;;8268597;28;20583;-63
2022/10/21 07:28:53;;;;;;;6.05;2.53;;;;;;;;;;8269040;28;20034;-63
2022/10/21 07:32:53;;;;;;;22.75;10.18;;;;;;;;;;8268358;28;20153;-63
2022/10/21 07:36:54;;;;;;;14.05;8.32;;;;;;;;;;8269453;28;20037;-63
2022/10/21 07:40:54;;;;;;;7.38;4.50;;;;;;;;;;8267878;28;20148;-63
2022/10/21 07:44:58;;;;;;;9.23;2.53;;;;;;;;;;8268841;28;20044;-63
2022/10/21 07:48:59;;;;;;;5.60;2.15;;;;;;;;;;8267609;28;20038;-62
2022/10/21 07:53:00;;;;;;;3.37;1.50;;;;;;;;;;8269400;28;20112;-62
2022/10/21 07:57:00;;;;;;;2.97;1.45;;;;;;;;;;8268061;28;20844;-62
2022/10/21 08:01:00;;;;;;;7.72;1.30;;;;;;;;;;8269276;28;20034;-63
2022/10/21 08:05:01;;;;;;;2.25;1.30;;;;;;;;;;8270800;28;20021;-63
2022/10/21 08:09:02;;;;;;;2.67;1.33;;;;;;;;;;8267469;28;20039;-62
2022/10/21 08:13:02;;;;;;;3.53;1.40;;;;;;;;;;8269876;28;20075;-62
2022/10/21 08:17:02;;;;;;;3.30;1.50;;;;;;;;;;8269045;28;20075;-63
2022/10/21 08:21:03;;;;;;;2.67;1.50;;;;;;;;;;8268003;28;20479;-63
2022/10/21 08:25:03;;;;;;;4.85;1.33;;;;;;;;;;8273662;28;20033;-63
2022/10/21 08:29:03;;;;;;;2.53;1.38;;;;;;;;;;8276397;28;20131;-63
2022/10/21 08:33:03;;;;;;;2.72;1.33;;;;;;;;;;8271457;28;20029;-63
2022/10/21 08:37:04;;;;;;;2.97;1.10;;;;;;;;;;8274539;28;20029;-63
2022/10/21 08:41:20;;;;;;;4.97;2.22;;;;;;;;;;8276018;28;20030;-63
2022/10/21 08:45:21;;;;;;;8.55;4.43;;;;;;;;;;8274899;28;20026;-63
2022/10/21 08:49:41;;;;;;;35.20;11.05;;;;;;;;;;8276207;28;20489;-63
2022/10/21 08:53:45;;;;;;;20.50;8.45;;;;;;;;;;8275128;28;20022;-63
2022/10/21 08:57:46;;;;;;;11.30;6.22;;;;;;;;;;8273178;28;20397;-63
2022/10/21 09:01:54;;;;;;;11.57;6.50;;;;;;;;;;8274313;28;20041;-63
2022/10/21 09:06:06;;;;;;;7.88;5.88;;;;;;;;;;8273084;28;20044;-63
2022/10/21 09:10:16;;;;;;;3.42;2.00;;;;;;;;;;8275117;28;20047;-62
2022/10/21 09:14:35;;;;;;;1.15;0.93;;;;;;;;;;8272839;28;20468;-63
2022/10/21 09:18:45;;;;;;;1.58;0.90;;;;;;;;;;8273245;28;20482;-63
2022/10/21 09:22:57;;;;;;;1.80;1.17;;;;;;;;;;8273578;28;20033;-63
2022/10/21 09:26:58;;;;;;;3.55;0.98;;;;;;;;;;8273054;28;20030;-63
2022/10/21 09:31:01;;;;;;;4.15;1.38;;;;;;;;;;8271587;28;20117;-63
2022/10/21 09:35:17;;;;;;;5.10;1.20;;;;;;;;;;8271687;28;20022;-63
2022/10/21 09:39:18;;;;;;;2.83;1.20;;;;;;;;;;8271856;28;20072;-63
2022/10/21 09:43:21;;;;;;;2.85;1.20;;;;;;;;;;8272019;28;20361;-63
2022/10/21 09:47:22;;;;;;;3.80;1.10;;;;;;;;;;8270989;28;20025;-63
2022/10/21 09:51:24;;;;;;;2.75;1.30;;;;;;;;;;8271733;28;20130;-63
2022/10/21 09:55:25;;;;;;;3.63;1.13;;;;;;;;;;8272096;28;20074;-62
2022/10/21 09:59:26;;;;;;;2.42;1.08;;;;;;;;;;8270835;28;20525;-63
2022/10/21 10:03:29;;;;;;;2.10;1.17;;;;;;;;;;8269989;28;20294;-63
2022/10/21 10:07:34;;;;;;;1.57;1.00;;;;;;;;;;8272793;28;20021;-63
2022/10/21 10:11:46;;;;;;;1.20;0.88;;;;;;;;;;8271727;28;20022;-63
2022/10/21 10:15:46;;;;;;;3.60;0.93;;;;;;;;;;8270347;28;20091;-62
2022/10/21 10:20:05;;;;;;;1.85;0.80;;;;;;;;;;8270889;28;20105;-63
2022/10/21 10:24:05;;;;;;;1.42;0.70;;;;;;;;;;8269709;28;20128;-63
2022/10/21 10:28:08;;;;;;;4.80;0.80;;;;;;;;;;8270465;28;20030;-63
2022/10/21 10:32:13;;;;;;;2.88;0.80;;;;;;;;;;8269854;28;20316;-63
2022/10/21 10:36:22;;;;;;;3.90;0.75;;;;;;;;;;8272220;28;20029;-63
2022/10/21 10:40:24;;;;;;;1.42;0.70;;;;;;;;;;8268836;28;20086;-63
2022/10/21 10:44:31;;;;;;;1.00;0.60;;;;;;;;;;8268802;28;20029;-63
2022/10/21 10:48:37;;;;;;;1.60;1.30;;;;;;;;;;8270990;28;20022;-63
2022/10/21 10:52:37;;;;;;;4.40;2.78;;;;;;;;;;8270804;28;20657;-64
2022/10/21 10:56:45;;;;;;;4.28;1.52;;;;;;;;;;8271001;28;20021;-63
2022/10/21 11:00:47;;;;;;;2.03;1.08;;;;;;;;;;8269128;28;20246;-63
2022/10/21 11:04:53;;;;;;;1.65;0.90;;;;;;;;;;8269290;28;20125;-63
2022/10/21 11:08:55;;;;;;;5.05;0.88;;;;;;;;;;8270978;28;20141;-63
2022/10/21 11:12:55;;;;;;;1.90;0.77;;;;;;;;;;8269410;28;20057;-63
2022/10/21 11:17:12;;;;;;;0.80;0.60;;;;;;;;;;8270931;28;20069;-63
2022/10/21 11:21:12;;;;;;;1.00;0.60;;;;;;;;;;8268417;28;20351;-63
2022/10/21 11:25:12;;;;;;;1.25;0.70;;;;;;;;;;8269123;28;20068;-63
2022/10/21 11:29:15;;;;;;;1.90;0.57;;;;;;;;;;8270258;28;20099;-63
2022/10/21 11:33:24;;;;;;;0.70;0.63;;;;;;;;;;8268451;28;20049;-63
2022/10/21 11:37:24;;;;;;;0.65;0.52;;;;;;;;;;8269998;28;20026;-63
2022/10/21 11:41:44;;;;;;;0.70;0.70;;;;;;;;;;8267661;28;20139;-63
2022/10/21 11:45:51;;;;;;;3.40;0.90;;;;;;;;;;8270454;28;20262;-63
2022/10/21 11:50:10;;;;;;;2.05;0.80;;;;;;;;;;8276004;28;20038;-63
2022/10/21 11:54:29;;;;;;;0.68;0.68;;;;;;;;;;8268697;28;20036;-63
2022/10/21 11:58:40;;;;;;;0.90;0.70;;;;;;;;;;8275775;28;20025;-63
2022/10/21 12:02:40;;;;;;;2.22;0.70;;;;;;;;;;8274290;28;20042;-63
2022/10/21 12:06:41;;;;;;;6.25;0.80;;;;;;;;;;8276224;28;20024;-63
2022/10/21 12:10:50;;;;;;;2.58;0.65;;;;;;;;;;8273461;28;20030;-63
2022/10/21 12:15:04;;;;;;;0.77;0.70;;;;;;;;;;8274709;28;20032;-63
2022/10/21 12:19:08;;;;;;;3.75;0.88;;;;;;;;;;8273922;28;20664;-63
2022/10/21 12:23:10;;;;;;;1.27;0.73;;;;;;;;;;8275168;28;20030;-63
2022/10/21 12:27:18;;;;;;;2.33;0.90;;;;;;;;;;8275241;28;20506;-63
2022/10/21 12:31:27;;;;;;;3.05;0.82;;;;;;;;;;8273979;28;20128;-63
2022/10/21 12:35:43;;;;;;;3.75;0.80;;;;;;;;;;8272850;28;20040;-63
2022/10/21 12:39:48;;;;;;;1.85;0.80;;;;;;;;;;8273026;28;20551;-63
2022/10/21 12:44:00;;;;;;;3.78;0.98;;;;;;;;;;8272050;28;20084;-63
2022/10/21 12:48:04;;;;;;;1.05;0.82;;;;;;;;;;8272438;28;20034;-63
2022/10/21 12:52:10;;;;;;;1.90;0.77;;;;;;;;;;8274504;28;20025;-63
2022/10/21 12:56:10;;;;;;;0.82;0.70;;;;;;;;;;8274086;28;20984;-63
2022/10/21 13:00:25;;;;;;;1.70;0.87;;;;;;;;;;8274827;28;20522;-63
2022/10/21 13:04:31;;;;;;;3.65;1.00;;;;;;;;;;8274987;28;20049;-63
2022/10/21 13:08:39;;;;;;;1.55;0.90;;;;;;;;;;8273092;28;20025;-63
2022/10/21 13:12:39;;;;;;;1.58;0.80;;;;;;;;;;8272405;28;20107;-63
2022/10/21 13:16:39;;;;;;;1.88;0.85;;;;;;;;;;8273968;28;20033;-63
2022/10/21 13:20:43;;;;;;;2.35;0.90;;;;;;;;;;8273041;28;20342;-63
2022/10/21 13:24:45;;;;;;;1.13;0.88;;;;;;;;;;8273487;28;20116;-62
2022/10/21 13:28:55;;;;;;;5.15;1.35;;;;;;;;;;8273653;28;20136;-64
2022/10/21 13:33:04;;;;;;;3.30;1.00;;;;;;;;;;8272167;28;20592;-63
2022/10/21 13:37:11;;;;;;;3.78;1.10;;;;;;;;;;8274709;28;20129;-63
2022/10/21 13:41:23;;;;;;;2.35;1.10;;;;;;;;;;8271160;28;20026;-63
2022/10/21 13:45:41;;;;;;;3.25;1.02;;;;;;;;;;8271936;28;20025;-63
2022/10/21 13:49:48;;;;;;;1.98;0.98;;;;;;;;;;8273147;28;20103;-63
2022/10/21 13:53:51;;;;;;;4.05;1.33;;;;;;;;;;8273848;28;20320;-63
2022/10/21 13:57:54;;;;;;;2.30;1.00;;;;;;;;;;8271950;28;20033;-63
2022/10/21 14:01:55;;;;;;;3.25;1.42;;;;;;;;;;8271197;28;20076;-63
2022/10/21 14:05:57;;;;;;;3.78;1.23;;;;;;;;;;8272820;28;20033;-62
2022/10/21 14:09:58;;;;;;;3.70;1.10;;;;;;;;;;8272070;28;21117;-62
2022/10/21 14:14:00;;;;;;;5.13;1.48;;;;;;;;;;8271216;28;20048;-63
2022/10/21 14:18:00;;;;;;;4.28;1.30;;;;;;;;;;8264597;28;20399;-63
2022/10/21 14:22:01;;;;;;;2.63;1.30;;;;;;;;;;8263064;28;20470;-63
2022/10/21 14:26:06;;;;;;;4.57;1.60;;;;;;;;;;8262933;28;20120;-63
2022/10/21 14:30:08;;;;;;;4.28;1.23;;;;;;;;;;8262237;28;20109;-63
2022/10/21 14:34:25;;;;;;;6.78;1.48;;;;;;;;;;8262888;28;20391;-63
2022/10/21 14:38:28;;;;;;;3.60;1.40;;;;;;;;;;8262956;28;20112;-62
2022/10/21 14:42:28;;;;;;;5.45;1.58;;;;;;;;;;8262233;28;20021;-63
2022/10/21 14:46:30;;;;;;;4.47;1.60;;;;;;;;;;8262422;28;20632;-62
2022/10/21 14:50:31;;;;;;;4.32;1.50;;;;;;;;;;8261865;28;20072;-63
2022/10/21 14:54:42;;;;;;;4.38;1.42;;;;;;;;;;8262070;28;20040;-63
2022/10/21 14:58:45;;;;;;;2.85;1.40;;;;;;;;;;8261701;28;20495;-63
2022/10/21 15:02:47;;;;;;;6.13;1.40;;;;;;;;;;8261693;28;20041;-62
2022/10/21 15:06:58;;;;;;;5.22;1.52;;;;;;;;;;8263002;28;20055;-63
2022/10/21 15:11:04;;;;;;;3.47;1.50;;;;;;;;;;8261132;28;20093;-62
2022/10/21 15:15:24;;;;;;;3.45;1.40;;;;;;;;;;8264066;28;20592;-63
2022/10/21 15:19:36;;;;;;;4.55;1.45;;;;;;;;;;8262108;28;20033;-63
2022/10/21 15:23:38;;;;;;;6.18;2.33;;;;;;;;;;8261309;28;20143;-63
2022/10/21 15:27:40;;;;;;;3.65;1.50;;;;;;;;;;8262195;28;20022;-62
2022/10/21 15:31:40;;;;;;;5.68;1.75;;;;;;;;;;8260090;28;20124;-63
2022/10/21 15:35:40;;;;;;;4.25;1.80;;;;;;;;;;8263098;28;20104;-62
2022/10/21 15:39:41;;;;;;;4.80;1.73;;;;;;;;;;8261868;28;20376;-62
2022/10/21 15:43:43;;;;;;;5.40;1.77;;;;;;;;;;8263672;28;20565;-63
2022/10/21 15:47:43;;;;;;;2.53;1.48;;;;;;;;;;8260811;28;20149;-62
2022/10/21 15:51:43;;;;;;;9.57;2.13;;;;;;;;;;8261763;28;20228;-62
2022/10/21 15:55:43;;;;;;;11.15;1.80;;;;;;;;;;8260593;28;20041;-62
2022/10/21 15:59:44;;;;;;;4.43;1.80;;;;;;;;;;8263794;28;20170;-63
2022/10/21 16:03:44;;;;;;;2.90;1.75;;;;;;;;;;8261308;28;20585;-63
2022/10/21 16:07:44;;;;;;;6.75;1.48;;;;;;;;;;8263425;28;20687;-62
2022/10/21 16:11:46;;;;;;;7.60;1.67;;;;;;;;;;8262297;28;20128;-62
2022/10/21 16:15:46;;;;;;;6.15;1.63;;;;;;;;;;8260446;28;20029;-62
2022/10/21 16:19:46;;;;;;;3.97;1.77;;;;;;;;;;8262806;28;20030;-62
2022/10/21 16:23:47;;;;;;;4.22;2.10;;;;;;;;;;8261393;28;20693;-62
2022/10/21 16:27:47;;;;;;;3.80;1.50;;;;;;;;;;8258417;28;20033;-63
2022/10/21 16:31:47;;;;;;;5.35;1.48;;;;;;;;;;8259247;28;20048;-62
2022/10/21 16:35:48;;;;;;;6.88;1.60;;;;;;;;;;8260481;28;20062;-62
2022/10/21 16:39:48;;;;;;;4.95;1.80;;;;;;;;;;8260528;28;20490;-62
2022/10/21 16:43:48;;;;;;;5.53;1.80;;;;;;;;;;8264885;28;20637;-62
2022/10/21 16:47:51;;;;;;;8.30;1.55;;;;;;;;;;8268834;28;20414;-62
2022/10/21 16:51:52;;;;;;;2.90;1.37;;;;;;;;;;8266056;28;20204;-63
2022/10/21 16:55:52;;;;;;;3.38;1.55;;;;;;;;;;8267336;28;20717;-62
2022/10/21 16:59:52;;;;;;;6.53;3.85;;;;;;;;;;8265105;28;20588;-62
2022/10/21 17:03:52;;;;;;;7.82;2.50;;;;;;;;;;8265205;28;20065;-62
2022/10/21 17:07:52;;;;;;;3.30;1.80;;;;;;;;;;8265055;28;20396;-63
2022/10/21 17:11:53;;;;;;;5.05;1.75;;;;;;;;;;8265876;28;20076;-62
2022/10/21 17:15:53;;;;;;;6.18;1.60;;;;;;;;;;8266135;28;20029;-62
2022/10/21 17:19:53;;;;;;;2.88;1.38;;;;;;;;;;8264890;28;20209;-62
2022/10/21 17:23:54;;;;;;;4.25;1.50;;;;;;;;;;8265963;28;20030;-63
2022/10/21 17:27:55;;;;;;;5.15;1.75;;;;;;;;;;8265249;28;20041;-62
2022/10/21 17:31:55;;;;;;;4.05;1.80;;;;;;;;;;8264938;28;20382;-62
2022/10/21 17:35:55;;;;;;;5.80;1.80;;;;;;;;;;8264226;28;20160;-62
2022/10/21 17:39:55;;;;;;;6.47;1.95;;;;;;;;;;8265000;28;20036;-62
2022/10/21 17:43:56;;;;;;;8.23;1.92;;;;;;;;;;8264172;28;20034;-63
2022/10/21 17:47:57;;;;;;;2.28;1.42;;;;;;;;;;8265580;28;20269;-62
2022/10/21 17:51:57;;;;;;;9.30;3.78;;;;;;;;;;8264240;28;20022;-62
2022/10/21 17:55:58;;;;;;;6.32;1.90;;;;;;;;;;8265651;28;20228;-62
2022/10/21 17:59:59;;;;;;;3.67;1.80;;;;;;;;;;8265137;28;20083;-62
2022/10/21 18:03:59;;;;;;;6.55;1.92;;;;;;;;;;8264515;28;20042;-62
2022/10/21 18:07:59;;;;;;;9.68;1.73;;;;;;;;;;8263170;28;20371;-62
2022/10/21 18:11:59;;;;;;;6.75;1.80;;;;;;;;;;8264939;28;20710;-62
2022/10/21 18:16:01;;;;;;;5.05;1.60;;;;;;;;;;8263361;28;20439;-64
2022/10/21 18:20:01;;;;;;;11.88;2.30;;;;;;;;;;8264793;28;20573;-62
2022/10/21 18:24:01;;;;;;;7.25;1.80;;;;;;;;;;8264967;28;20025;-62
2022/10/21 18:28:01;;;;;;;4.15;1.80;;;;;;;;;;8264035;28;20057;-62
2022/10/21 18:32:01;;;;;;;9.60;1.87;;;;;;;;;;8263754;28;20285;-62
2022/10/21 18:36:09;;;;;;;5.85;1.90;;;;;;;;;;8263285;28;20025;-62
2022/10/21 18:40:09;;;;;;;2.50;1.50;;;;;;;;;;8263542;28;20026;-62
2022/10/21 18:44:11;;;;;;;7.33;2.00;;;;;;;;;;8263438;28;20076;-62
2022/10/21 18:48:11;;;;;;;5.88;2.65;;;;;;;;;;8260920;28;20391;-62
2022/10/21 18:52:12;;;;;;;5.35;1.95;;;;;;;;;;8262130;28;20056;-62
2022/10/21 18:56:13;;;;;;;5.68;2.00;;;;;;;;;;8264056;28;20283;-62
2022/10/21 19:00:13;;;;;;;5.82;2.05;;;;;;;;;;8262129;28;20030;-63
2022/10/21 19:04:13;;;;;;;6.85;2.00;;;;;;;;;;8262161;28;20499;-62
2022/10/21 19:08:13;;;;;;;6.05;1.77;;;;;;;;;;8263991;28;20079;-62
2022/10/21 19:12:14;;;;;;;7.75;1.90;;;;;;;;;;8262836;28;20018;-62
2022/10/21 19:16:14;;;;;;;5.03;1.95;;;;;;;;;;8263222;28;20402;-62
2022/10/21 19:20:14;;;;;;;7.95;1.98;;;;;;;;;;8262546;28;20503;-62
2022/10/21 19:24:14;;;;;;;5.55;1.83;;;;;;;;;;8264969;28;20064;-62
2022/10/21 19:28:14;;;;;;;5.43;2.17;;;;;;;;;;8262562;28;20026;-62
2022/10/21 19:32:15;;;;;;;5.70;2.00;;;;;;;;;;8261012;28;20040;-62
2022/10/21 19:36:16;;;;;;;5.90;1.80;;;;;;;;;;8262967;28;20031;-63
2022/10/21 19:40:16;;;;;;;6.65;1.80;;;;;;;;;;8262133;28;20361;-62
2022/10/21 19:44:16;;;;;;;5.53;2.00;;;;;;;;;;8263014;28;20018;-62
2022/10/21 19:48:16;;;;;;;6.90;2.00;;;;;;;;;;8260973;28;20847;-62
2022/10/21 19:52:16;;;;;;;2.80;1.60;;;;;;;;;;8263102;28;20936;-62
2022/10/21 19:56:17;;;;;;;5.07;1.77;;;;;;;;;;8261479;28;20538;-62
2022/10/21 20:00:17;;;;;;;5.85;2.05;;;;;;;;;;8260784;28;20063;-62
2022/10/21 20:04:18;;;;;;;10.15;2.00;;;;;;;;;;8260847;28;20320;-62
2022/10/21 20:08:18;;;;;;;9.15;2.40;;;;;;;;;;8261358;28;20084;-62
2022/10/21 20:12:18;;;;;;;9.65;2.00;;;;;;;;;;8261266;28;20437;-62
2022/10/21 20:16:19;;;;;;;8.80;1.70;;;;;;;;;;8263027;28;20056;-63
2022/10/21 20:20:19;;;;;;;10.18;2.00;;;;;;;;;;8269340;28;20009;-62
2022/10/21 20:24:20;;;;;;;7.13;2.08;;;;;;;;;;8267190;28;20053;-62
2022/10/21 20:28:20;;;;;;;7.45;2.22;;;;;;;;;;8267383;28;20465;-63
2022/10/21 20:32:20;;;;;;;6.22;1.98;;;;;;;;;;8265766;28;20566;-62
2022/10/21 20:36:25;;;;;;;8.38;2.25;;;;;;;;;;8265985;28;20476;-63
2022/10/21 20:40:26;;;;;;;6.40;1.85;;;;;;;;;;8266664;28;20021;-63
2022/10/21 20:44:26;;;;;;;8.45;2.00;;;;;;;;;;8267368;28;20107;-63
2022/10/21 20:48:26;;;;;;;5.63;1.70;;;;;;;;;;8267443;28;20030;-63
2022/10/21 20:52:27;;;;;;;10.27;1.98;;;;;;;;;;8269217;28;20490;-63
2022/10/21 20:56:29;;;;;;;2.60;1.70;;;;;;;;;;8267033;28;20783;-63
2022/10/21 21:00:29;;;;;;;6.95;2.00;;;;;;;;;;8265749;28;20068;-63
2022/10/21 21:04:29;;;;;;;6.28;1.60;;;;;;;;;;8265339;28;20022;-63
2022/10/21 21:08:34;;;;;;;3.97;1.55;;;;;;;;;;8266530;28;20116;-63
2022/10/21 21:12:34;;;;;;;5.75;1.88;;;;;;;;;;8264744;28;20091;-63
2022/10/21 21:16:34;;;;;;;6.25;1.67;;;;;;;;;;8267072;28;20057;-63
2022/10/21 21:20:35;;;;;;;5.50;2.08;;;;;;;;;;8265549;28;20394;-63
2022/10/21 21:24:35;;;;;;;4.93;2.50;;;;;;;;;;8266586;28;20026;-63
2022/10/21 21:28:36;;;;;;;5.20;2.83;;;;;;;;;;8266775;28;20026;-63
2022/10/21 21:32:36;;;;;;;6.28;2.28;;;;;;;;;;8265363;28;20053;-63
2022/10/21 21:36:36;;;;;;;2.92;1.92;;;;;;;;;;8266602;28;20473;-63
2022/10/21 21:40:36;;;;;;;6.77;2.20;;;;;;;;;;8265389;28;20032;-63
2022/10/21 21:44:36;;;;;;;9.40;2.05;;;;;;;;;;8265570;28;20026;-63
2022/10/21 21:48:37;;;;;;;6.88;2.33;;;;;;;;;;8264927;28;20029;-63
2022/10/21 21:52:37;;;;;;;9.32;2.40;;;;;;;;;;8265488;28;20052;-63
2022/10/21 21:56:37;;;;;;;8.57;2.20;;;;;;;;;;8262492;28;20080;-63
2022/10/21 22:00:37;;;;;;;5.63;2.45;;;;;;;;;;8265356;28;20037;-63
2022/10/21 22:04:39;;;;;;;9.60;2.70;;;;;;;;;;8261955;28;20141;-63
2022/10/21 22:08:40;;;;;;;10.82;2.40;;;;;;;;;;8263767;28;20022;-63
2022/10/21 22:12:41;;;;;;;9.30;2.33;;;;;;;;;;8263802;28;20021;-63
2022/10/21 22:16:42;;;;;;;7.13;5.72;;;;;;;;;;8264571;28;20038;-63
2022/10/21 22:20:42;;;;;;;4.00;2.50;;;;;;;;;;8263631;28;20589;-63
2022/10/21 22:24:42;;;;;;;5.80;2.80;;;;;;;;;;8264009;28;20526;-63
2022/10/21 22:28:42;;;;;;;6.70;2.65;;;;;;;;;;8262838;28;20288;-63
2022/10/21 22:32:42;;;;;;;5.40;2.77;;;;;;;;;;8262831;28;20259;-63
2022/10/21 22:36:43;;;;;;;4.22;2.13;;;;;;;;;;8264527;28;20275;-63
2022/10/21 22:40:43;;;;;;;5.95;2.63;;;;;;;;;;8262774;28;20030;-63
2022/10/21 22:44:43;;;;;;;5.25;2.42;;;;;;;;;;8262809;28;20571;-63
2022/10/21 22:48:43;;;;;;;5.03;2.70;;;;;;;;;;8263298;28;20667;-63
2022/10/21 22:52:43;;;;;;;6.72;2.47;;;;;;;;;;8262323;28;20025;-63
2022/10/21 22:56:44;;;;;;;4.47;2.92;;;;;;;;;;8263397;28;20038;-63
2022/10/21 23:00:45;;;;;;;8.20;3.70;;;;;;;;;;8262846;28;20046;-63
2022/10/21 23:04:45;;;;;;;7.35;3.95;;;;;;;;;;8263458;28;20036;-63
2022/10/21 23:08:45;;;;;;;6.75;3.30;;;;;;;;;;8264305;28;20068;-63
2022/10/21 23:12:45;;;;;;;9.15;3.30;;;;;;;;;;8260394;28;20032;-63
2022/10/21 23:16:45;;;;;;;6.78;2.80;;;;;;;;;;8262694;28;20478;-63
2022/10/21 23:20:46;;;;;;;6.28;2.67;;;;;;;;;;8262080;28;20033;-63
2022/10/21 23:24:46;;;;;;;7.63;2.65;;;;;;;;;;8261521;28;20359;-63
2022/10/21 23:28:46;;;;;;;6.43;3.20;;;;;;;;;;8261674;28;20462;-63
2022/10/21 23:32:46;;;;;;;6.68;2.80;;;;;;;;;;8259452;28;20129;-63
2022/10/21 23:36:46;;;;;;;5.68;2.50;;;;;;;;;;8261257;28;20024;-63
2022/10/21 23:40:47;;;;;;;5.47;2.15;;;;;;;;;;8259840;28;20038;-63
2022/10/21 23:44:47;;;;;;;4.10;1.98;;;;;;;;;;8261230;28;20046;-63
2022/10/21 23:48:47;;;;;;;4.25;1.95;;;;;;;;;;8261704;28;20034;-63
2022/10/21 23:52:47;;;;;;;5.00;2.20;;;;;;;;;;8266794;28;20095;-63
2022/10/21 23:56:47;;;;;;;7.25;1.63;;;;;;;;;;8266216;28;20281;-63
